createdAt,value
2023-01-19T00:00:28.450Z,2.53
2023-01-19T00:01:30.271Z,2.54
2023-01-19T00:02:32.344Z,2.55
2023-01-19T00:03:35.213Z,2.59
2023-01-19T00:04:37.111Z,2.64
2023-01-19T00:05:38.853Z,2.68
2023-01-19T00:06:40.706Z,2.71
2023-01-19T00:07:42.447Z,2.73
2023-01-19T00:08:46.091Z,2.75
2023-01-19T00:09:47.965Z,2.75
2023-01-19T00:10:53.083Z,2.78
2023-01-19T00:11:55.001Z,2.80
2023-01-19T00:12:56.823Z,2.83
2023-01-19T00:13:59.185Z,2.81
2023-01-19T00:15:00.968Z,2.78
2023-01-19T00:16:02.960Z,2.77
2023-01-19T00:17:04.759Z,2.80
2023-01-19T00:18:07.335Z,2.81
2023-01-19T00:19:09.755Z,2.79
2023-01-19T00:20:11.857Z,2.76
2023-01-19T00:21:16.854Z,2.73
2023-01-19T00:22:18.711Z,2.73
2023-01-19T00:23:21.400Z,2.76
2023-01-19T00:24:23.217Z,2.79
2023-01-19T00:25:25.159Z,2.77
2023-01-19T00:26:27.092Z,2.78
2023-01-19T00:27:30.902Z,2.73
2023-01-19T00:28:32.699Z,2.70
2023-01-19T00:29:34.627Z,2.66
2023-01-19T00:30:36.597Z,2.63
2023-01-19T00:31:38.516Z,2.65
2023-01-19T00:32:40.394Z,2.65
2023-01-19T00:33:42.191Z,2.69
2023-01-19T00:34:49.745Z,2.74
2023-01-19T00:35:53.384Z,2.74
2023-01-19T00:36:55.196Z,2.72
2023-01-19T00:37:58.035Z,2.73
2023-01-19T00:38:59.902Z,2.77
2023-01-19T00:40:01.655Z,2.79
2023-01-19T00:41:03.440Z,2.84
2023-01-19T00:42:23.609Z,2.87
2023-01-19T00:43:25.486Z,2.88
2023-01-19T00:44:27.230Z,2.86
2023-01-19T00:45:29.081Z,2.85
2023-01-19T00:46:30.969Z,2.85
2023-01-19T00:47:33.606Z,2.81
2023-01-19T00:48:35.579Z,2.83
2023-01-19T00:49:37.464Z,2.84
2023-01-19T00:50:39.226Z,2.84
2023-01-19T00:51:41.087Z,2.80
2023-01-19T00:52:43.517Z,2.78
2023-01-19T00:53:45.385Z,2.77
2023-01-19T00:54:47.302Z,2.77
2023-01-19T00:55:49.107Z,2.78
2023-01-19T00:56:51.125Z,2.75
2023-01-19T00:57:52.909Z,2.73
2023-01-19T00:58:54.949Z,2.78
2023-01-19T00:59:56.984Z,2.79
2023-01-19T01:01:03.899Z,2.80
2023-01-19T01:02:06.226Z,2.83
2023-01-19T01:03:08.292Z,2.85
2023-01-19T01:04:12.524Z,2.89
2023-01-19T01:05:14.544Z,2.90
2023-01-19T01:06:16.289Z,2.91
2023-01-19T01:07:18.129Z,2.90
2023-01-19T01:08:19.912Z,2.92
2023-01-19T01:09:21.756Z,2.92
2023-01-19T01:10:25.479Z,2.96
2023-01-19T01:11:27.273Z,2.95
2023-01-19T01:12:29.073Z,2.94
2023-01-19T01:13:31.116Z,2.93
2023-01-19T01:14:33.267Z,2.93
2023-01-19T01:15:35.107Z,2.95
2023-01-19T01:16:36.971Z,2.95
2023-01-19T01:17:46.855Z,2.92
2023-01-19T01:18:48.623Z,2.93
2023-01-19T01:19:50.752Z,2.94
2023-01-19T01:20:54.568Z,2.93
2023-01-19T01:21:58.004Z,2.91
2023-01-19T01:23:00.333Z,2.90
2023-01-19T01:24:02.422Z,2.91
2023-01-19T01:25:04.302Z,2.88
2023-01-19T01:26:06.058Z,2.88
2023-01-19T01:27:08.515Z,2.90
2023-01-19T01:28:10.389Z,2.92
2023-01-19T01:29:12.826Z,2.94
2023-01-19T01:30:15.257Z,2.93
2023-01-19T01:31:17.098Z,2.93
2023-01-19T01:32:18.920Z,2.95
2023-01-19T01:33:41.143Z,2.97
2023-01-19T01:34:42.805Z,2.96
2023-01-19T01:35:44.607Z,2.90
2023-01-19T01:36:46.364Z,2.86
2023-01-19T01:37:48.075Z,2.87
2023-01-19T01:38:49.964Z,2.88
2023-01-19T01:39:51.816Z,2.90
2023-01-19T01:40:53.669Z,2.90
2023-01-19T01:41:57.454Z,2.90
2023-01-19T01:42:59.805Z,2.90
2023-01-19T01:44:08.683Z,2.91
2023-01-19T01:45:28.945Z,2.91
2023-01-19T01:46:32.207Z,2.92
2023-01-19T01:47:38.523Z,2.93
2023-01-19T01:48:41.352Z,2.95
2023-01-19T01:49:43.593Z,2.98
2023-01-19T01:51:08.177Z,2.97
2023-01-19T01:52:10.457Z,3.00
2023-01-19T01:53:14.629Z,2.99
2023-01-19T01:54:17.378Z,3.00
2023-01-19T01:55:21.233Z,2.99
2023-01-19T01:56:26.347Z,3.01
2023-01-19T01:57:28.284Z,3.00
2023-01-19T01:58:30.931Z,3.00
2023-01-19T01:59:40.486Z,3.02
2023-01-19T02:01:01.150Z,3.03
2023-01-19T02:02:23.081Z,3.04
2023-01-19T02:03:26.003Z,3.07
2023-01-19T02:04:28.473Z,3.07
2023-01-19T02:05:33.778Z,3.03
2023-01-19T02:06:54.624Z,2.98
2023-01-19T02:08:33.790Z,2.97
2023-01-19T02:09:55.403Z,2.99
2023-01-19T02:11:17.009Z,2.99
2023-01-19T02:12:37.176Z,2.98
2023-01-19T02:13:40.707Z,2.97
2023-01-19T02:14:42.439Z,2.93
2023-01-19T02:15:44.341Z,2.89
2023-01-19T02:16:46.749Z,2.90
2023-01-19T02:17:48.825Z,2.86
2023-01-19T02:18:50.803Z,2.88
2023-01-19T02:19:52.628Z,2.91
2023-01-19T02:20:54.381Z,2.91
2023-01-19T02:22:08.308Z,2.90
2023-01-19T02:23:15.971Z,2.86
2023-01-19T02:24:18.062Z,2.80
2023-01-19T02:25:20.692Z,2.83
2023-01-19T02:26:24.875Z,2.83
2023-01-19T02:27:26.676Z,2.82
2023-01-19T02:28:28.908Z,2.75
2023-01-19T02:29:30.834Z,2.79
2023-01-19T02:30:33.497Z,2.84
2023-01-19T02:31:37.511Z,2.83
2023-01-19T02:32:39.467Z,2.84
2023-01-19T02:33:42.051Z,2.85
2023-01-19T02:34:43.851Z,2.86
2023-01-19T02:35:46.273Z,2.85
2023-01-19T02:36:50.722Z,2.85
2023-01-19T02:37:53.415Z,2.87
2023-01-19T02:39:00.518Z,2.84
2023-01-19T02:40:03.148Z,2.85
2023-01-19T02:41:06.608Z,2.87
2023-01-19T02:42:26.694Z,2.85
2023-01-19T02:43:30.316Z,2.82
2023-01-19T02:44:33.699Z,2.79
2023-01-19T02:45:37.819Z,2.76
2023-01-19T02:46:41.304Z,2.79
2023-01-19T02:47:47.342Z,2.80
2023-01-19T02:48:49.263Z,2.83
2023-01-19T02:49:57.252Z,2.85
2023-01-19T02:51:04.417Z,2.84
2023-01-19T02:52:06.232Z,2.79
2023-01-19T02:53:31.235Z,2.82
2023-01-19T02:54:35.720Z,2.86
2023-01-19T02:55:38.481Z,2.84
2023-01-19T02:56:46.921Z,2.79
2023-01-19T02:57:51.434Z,2.67
2023-01-19T02:59:13.445Z,2.68
2023-01-19T03:00:15.288Z,2.68
2023-01-19T03:01:24.226Z,2.65
2023-01-19T03:02:35.660Z,2.63
2023-01-19T03:03:50.036Z,2.64
2023-01-19T03:05:05.019Z,2.56
2023-01-19T03:06:10.384Z,2.49
2023-01-19T03:07:15.113Z,2.54
2023-01-19T03:08:38.391Z,2.59
2023-01-19T03:09:41.831Z,2.59
2023-01-19T03:10:53.591Z,2.58
2023-01-19T03:12:03.946Z,2.44
2023-01-19T03:13:11.364Z,2.38
2023-01-19T03:14:15.239Z,2.41
2023-01-19T03:15:23.737Z,2.47
2023-01-19T03:16:32.637Z,2.51
2023-01-19T03:17:35.336Z,2.55
2023-01-19T03:18:38.489Z,2.58
2023-01-19T03:19:41.863Z,2.62
2023-01-19T03:20:44.491Z,2.66
2023-01-19T03:21:48.425Z,2.70
2023-01-19T03:22:54.199Z,2.72
2023-01-19T03:23:58.936Z,2.66
2023-01-19T03:25:01.921Z,2.65
2023-01-19T03:26:05.498Z,2.67
2023-01-19T03:27:16.742Z,2.69
2023-01-19T03:28:20.962Z,2.63
2023-01-19T03:29:22.846Z,2.56
2023-01-19T03:30:27.383Z,2.46
2023-01-19T03:31:30.886Z,2.42
2023-01-19T03:32:36.488Z,2.33
2023-01-19T03:33:40.772Z,2.32
2023-01-19T03:34:43.612Z,2.35
2023-01-19T03:35:49.358Z,2.38
2023-01-19T03:36:54.269Z,2.34
2023-01-19T03:37:58.470Z,2.36
2023-01-19T03:39:02.153Z,2.35
2023-01-19T03:40:04.093Z,2.27
2023-01-19T03:41:08.739Z,2.25
2023-01-19T03:42:14.399Z,2.25
2023-01-19T03:43:17.084Z,2.28
2023-01-19T03:44:18.936Z,2.27
2023-01-19T03:45:22.260Z,2.23
2023-01-19T03:46:25.395Z,2.24
2023-01-19T03:47:27.781Z,2.26
2023-01-19T03:48:29.612Z,2.32
2023-01-19T03:49:32.112Z,2.36
2023-01-19T03:50:33.994Z,2.38
2023-01-19T03:51:37.734Z,2.38
2023-01-19T03:52:39.646Z,2.38
2023-01-19T03:53:42.116Z,2.36
2023-01-19T03:54:44.037Z,2.34
2023-01-19T03:55:47.584Z,2.36
2023-01-19T03:56:49.395Z,2.40
2023-01-19T03:57:51.233Z,2.37
2023-01-19T03:58:53.514Z,2.36
2023-01-19T03:59:57.103Z,2.37
2023-01-19T04:00:58.904Z,2.43
2023-01-19T04:02:00.802Z,2.47
2023-01-19T04:03:06.891Z,2.49
2023-01-19T04:04:08.849Z,2.52
2023-01-19T04:05:10.719Z,2.54
2023-01-19T04:06:12.514Z,2.55
2023-01-19T04:07:14.399Z,2.45
2023-01-19T04:08:16.236Z,2.36
2023-01-19T04:09:19.445Z,2.34
2023-01-19T04:10:22.350Z,2.33
2023-01-19T04:11:24.245Z,2.34
2023-01-19T04:12:26.042Z,2.35
2023-01-19T04:13:31.189Z,2.29
2023-01-19T04:14:33.146Z,2.32
2023-01-19T04:15:34.968Z,2.34
2023-01-19T04:16:36.815Z,2.36
2023-01-19T04:17:39.478Z,2.32
2023-01-19T04:18:41.507Z,2.36
2023-01-19T04:19:43.864Z,2.37
2023-01-19T04:20:45.715Z,2.40
2023-01-19T04:21:51.133Z,2.38
2023-01-19T04:22:52.975Z,2.36
2023-01-19T04:23:54.845Z,2.34
2023-01-19T04:24:56.845Z,2.35
2023-01-19T04:25:59.259Z,2.36
2023-01-19T04:27:01.153Z,2.37
2023-01-19T04:28:02.943Z,2.40
2023-01-19T04:29:04.759Z,2.39
2023-01-19T04:30:07.108Z,2.42
2023-01-19T04:31:09.066Z,2.45
2023-01-19T04:32:10.983Z,2.46
2023-01-19T04:33:12.885Z,2.49
2023-01-19T04:34:14.675Z,2.52
2023-01-19T04:35:17.581Z,2.54
2023-01-19T04:36:19.339Z,2.55
2023-01-19T04:37:21.121Z,2.56
2023-01-19T04:38:24.137Z,2.56
2023-01-19T04:39:26.084Z,2.58
2023-01-19T04:40:27.951Z,2.60
2023-01-19T04:41:31.099Z,2.63
2023-01-19T04:42:33.056Z,2.64
2023-01-19T04:43:34.844Z,2.62
2023-01-19T04:44:36.685Z,2.60
2023-01-19T04:45:38.631Z,2.64
2023-01-19T04:46:40.505Z,2.64
2023-01-19T04:47:45.403Z,2.53
2023-01-19T04:48:47.271Z,2.49
2023-01-19T04:49:49.089Z,2.45
2023-01-19T04:50:51.475Z,2.39
2023-01-19T04:51:53.969Z,2.37
2023-01-19T04:52:55.743Z,2.42
2023-01-19T04:53:58.011Z,2.48
2023-01-19T04:54:59.798Z,2.50
2023-01-19T04:56:01.703Z,2.52
2023-01-19T04:57:03.610Z,2.55
2023-01-19T04:58:05.591Z,2.55
2023-01-19T04:59:07.469Z,2.56
2023-01-19T05:00:10.278Z,2.57
2023-01-19T05:01:12.184Z,2.59
2023-01-19T05:02:14.078Z,2.58
2023-01-19T05:03:16.009Z,2.52
2023-01-19T05:04:17.872Z,2.52
2023-01-19T05:05:19.903Z,2.54
2023-01-19T05:06:21.783Z,2.53
2023-01-19T05:07:23.631Z,2.56
2023-01-19T05:08:25.501Z,2.58
2023-01-19T05:09:27.733Z,2.58
2023-01-19T05:10:29.536Z,2.57
2023-01-19T05:11:31.320Z,2.56
2023-01-19T05:12:33.431Z,2.55
2023-01-19T05:13:35.295Z,2.57
2023-01-19T05:14:37.143Z,2.58
2023-01-19T05:15:38.904Z,2.61
2023-01-19T05:16:40.726Z,2.65
2023-01-19T05:17:43.198Z,2.67
2023-01-19T05:18:45.054Z,2.66
2023-01-19T05:19:48.035Z,2.64
2023-01-19T05:20:49.940Z,2.57
2023-01-19T05:21:52.056Z,2.49
2023-01-19T05:22:53.990Z,2.47
2023-01-19T05:23:55.760Z,2.46
2023-01-19T05:24:57.625Z,2.45
2023-01-19T05:26:01.367Z,2.43
2023-01-19T05:27:03.316Z,2.40
2023-01-19T05:28:05.200Z,2.39
2023-01-19T05:29:07.325Z,2.39
2023-01-19T05:30:09.531Z,2.40
2023-01-19T05:31:11.485Z,2.39
2023-01-19T05:32:13.947Z,2.38
2023-01-19T05:33:15.885Z,2.37
2023-01-19T05:34:17.778Z,2.39
2023-01-19T05:35:27.789Z,2.41
2023-01-19T05:36:33.517Z,2.36
2023-01-19T05:37:35.400Z,2.24
2023-01-19T05:38:37.407Z,2.25
2023-01-19T05:39:39.231Z,2.26
2023-01-19T05:40:41.029Z,2.30
2023-01-19T05:41:43.830Z,2.33
2023-01-19T05:42:45.682Z,2.31
2023-01-19T05:43:47.560Z,2.34
2023-01-19T05:44:49.669Z,2.33
2023-01-19T05:45:51.831Z,2.33
2023-01-19T05:46:53.627Z,2.33
2023-01-19T05:47:55.379Z,2.36
2023-01-19T05:48:57.300Z,2.38
2023-01-19T05:49:59.082Z,2.38
2023-01-19T05:51:01.695Z,2.40
2023-01-19T05:52:03.567Z,2.39
2023-01-19T05:53:05.354Z,2.39
2023-01-19T05:54:08.273Z,2.38
2023-01-19T05:55:10.243Z,2.36
2023-01-19T05:56:12.081Z,2.35
2023-01-19T05:57:14.894Z,2.34
2023-01-19T05:58:17.183Z,2.28
2023-01-19T05:59:24.468Z,2.24
2023-01-19T06:00:27.978Z,2.21
2023-01-19T06:01:29.911Z,2.19
2023-01-19T06:02:31.763Z,2.17
2023-01-19T06:03:34.091Z,2.15
2023-01-19T06:04:35.958Z,2.13
2023-01-19T06:05:39.887Z,2.09
2023-01-19T06:06:41.732Z,2.08
2023-01-19T06:07:43.551Z,2.08
2023-01-19T06:08:46.145Z,2.11
2023-01-19T06:09:47.970Z,2.13
2023-01-19T06:10:49.840Z,2.10
2023-01-19T06:11:54.385Z,2.00
2023-01-19T06:12:56.104Z,2.00
2023-01-19T06:13:57.860Z,2.01
2023-01-19T06:14:59.665Z,2.04
2023-01-19T06:16:02.025Z,2.07
2023-01-19T06:17:06.261Z,2.05
2023-01-19T06:18:08.066Z,2.05
2023-01-19T06:19:10.029Z,2.04
2023-01-19T06:20:14.186Z,2.00
2023-01-19T06:21:16.162Z,1.95
2023-01-19T06:22:17.919Z,1.95
2023-01-19T06:23:21.341Z,1.95
2023-01-19T06:24:23.428Z,1.95
2023-01-19T06:25:26.468Z,1.92
2023-01-19T06:26:28.413Z,1.90
2023-01-19T06:27:30.356Z,1.89
2023-01-19T06:28:32.272Z,1.90
2023-01-19T06:29:34.187Z,1.90
2023-01-19T06:30:36.032Z,1.90
2023-01-19T06:31:38.241Z,1.92
2023-01-19T06:32:40.110Z,1.92
2023-01-19T06:33:41.936Z,1.90
2023-01-19T06:34:44.094Z,1.91
2023-01-19T06:35:46.985Z,1.92
2023-01-19T06:36:49.078Z,1.91
2023-01-19T06:37:51.386Z,1.93
2023-01-19T06:38:53.188Z,1.93
2023-01-19T06:39:54.999Z,1.92
2023-01-19T06:40:58.960Z,1.90
2023-01-19T06:42:00.904Z,1.90
2023-01-19T06:43:03.052Z,1.89
2023-01-19T06:44:05.763Z,1.87
2023-01-19T06:45:09.453Z,1.84
2023-01-19T06:46:11.432Z,1.88
2023-01-19T06:47:14.544Z,1.87
2023-01-19T06:48:18.001Z,1.84
2023-01-19T06:49:19.894Z,1.84
2023-01-19T06:50:21.810Z,1.87
2023-01-19T06:51:24.084Z,1.86
2023-01-19T06:52:25.994Z,1.84
2023-01-19T06:53:28.581Z,1.83
2023-01-19T06:54:30.498Z,1.84
2023-01-19T06:55:32.344Z,1.85
2023-01-19T06:56:34.295Z,1.86
2023-01-19T06:57:38.792Z,1.80
2023-01-19T06:58:42.363Z,1.80
2023-01-19T06:59:44.204Z,1.77
2023-01-19T07:00:46.103Z,1.76
2023-01-19T07:01:48.043Z,1.79
2023-01-19T07:02:49.928Z,1.80
2023-01-19T07:03:51.843Z,1.75
2023-01-19T07:04:53.706Z,1.77
2023-01-19T07:05:57.067Z,1.77
2023-01-19T07:06:58.858Z,1.79
2023-01-19T07:08:00.732Z,1.82
2023-01-19T07:09:07.212Z,1.84
2023-01-19T07:10:10.119Z,1.85
2023-01-19T07:11:25.673Z,1.85
2023-01-19T07:12:34.233Z,1.85
2023-01-19T07:13:37.457Z,1.87
2023-01-19T07:14:39.415Z,1.85
2023-01-19T07:15:41.421Z,1.84
2023-01-19T07:16:43.322Z,1.79
2023-01-19T07:17:45.418Z,1.78
2023-01-19T07:18:48.567Z,1.79
2023-01-19T07:19:50.437Z,1.84
2023-01-19T07:20:52.383Z,1.86
2023-01-19T07:21:54.178Z,1.87
2023-01-19T07:22:59.182Z,1.88
2023-01-19T07:24:01.275Z,1.90
2023-01-19T07:25:03.099Z,1.94
2023-01-19T07:26:05.075Z,1.94
2023-01-19T07:27:06.975Z,1.98
2023-01-19T07:28:09.661Z,2.00
2023-01-19T07:29:11.410Z,2.03
2023-01-19T07:30:14.024Z,2.03
2023-01-19T07:31:16.849Z,2.00
2023-01-19T07:32:18.771Z,1.95
2023-01-19T07:33:22.406Z,1.92
2023-01-19T07:34:24.178Z,1.88
2023-01-19T07:35:26.086Z,1.90
2023-01-19T07:36:27.994Z,1.93
2023-01-19T07:37:29.811Z,1.93
2023-01-19T07:38:31.882Z,1.95
2023-01-19T07:39:33.695Z,1.92
2023-01-19T07:40:35.512Z,1.90
2023-01-19T07:41:37.419Z,1.79
2023-01-19T07:42:39.213Z,1.77
2023-01-19T07:43:41.096Z,1.82
2023-01-19T07:44:43.016Z,1.84
2023-01-19T07:45:45.557Z,1.84
2023-01-19T07:46:47.433Z,1.84
2023-01-19T07:47:50.088Z,1.83
2023-01-19T07:48:52.191Z,1.84
2023-01-19T07:49:54.001Z,1.80
2023-01-19T07:51:18.348Z,1.83
2023-01-19T07:52:20.178Z,1.83
2023-01-19T07:53:22.724Z,1.83
2023-01-19T07:54:24.617Z,1.86
2023-01-19T07:55:26.496Z,1.86
2023-01-19T07:56:32.738Z,1.86
2023-01-19T07:57:35.985Z,1.75
2023-01-19T07:58:37.907Z,1.78
2023-01-19T07:59:39.766Z,1.84
2023-01-19T08:00:41.737Z,1.85
2023-01-19T08:01:43.585Z,1.84
2023-01-19T08:02:45.556Z,1.83
2023-01-19T08:03:51.086Z,1.83
2023-01-19T08:04:52.881Z,1.83
2023-01-19T08:05:55.006Z,1.86
2023-01-19T08:06:56.944Z,1.85
2023-01-19T08:07:59.355Z,1.82
2023-01-19T08:09:01.316Z,1.84
2023-01-19T08:10:03.092Z,1.84
2023-01-19T08:11:05.068Z,1.88
2023-01-19T08:12:06.890Z,1.87
2023-01-19T08:13:08.742Z,1.84
2023-01-19T08:14:10.670Z,1.84
2023-01-19T08:15:12.497Z,1.83
2023-01-19T08:16:14.342Z,1.80
2023-01-19T08:17:16.229Z,1.82
2023-01-19T08:18:19.012Z,1.80
2023-01-19T08:19:20.850Z,1.83
2023-01-19T08:20:23.519Z,1.86
2023-01-19T08:21:25.831Z,1.79
2023-01-19T08:22:27.932Z,1.76
2023-01-19T08:23:30.213Z,1.79
2023-01-19T08:24:33.019Z,1.85
2023-01-19T08:25:39.461Z,1.85
2023-01-19T08:26:41.330Z,1.87
2023-01-19T08:27:43.191Z,1.87
2023-01-19T08:28:45.077Z,1.89
2023-01-19T08:29:47.064Z,1.91
2023-01-19T08:30:54.600Z,1.91
2023-01-19T08:32:01.144Z,1.90
2023-01-19T08:33:08.387Z,1.94
2023-01-19T08:34:10.318Z,1.97
2023-01-19T08:35:12.089Z,1.96
2023-01-19T08:36:13.965Z,1.98
2023-01-19T08:37:15.725Z,2.00
2023-01-19T08:38:17.873Z,1.99
2023-01-19T08:39:19.791Z,1.99
2023-01-19T08:40:21.640Z,1.99
2023-01-19T08:41:23.502Z,1.97
2023-01-19T08:42:25.289Z,1.94
2023-01-19T08:43:27.026Z,1.93
2023-01-19T08:44:28.919Z,1.96
2023-01-19T08:45:31.577Z,1.95
2023-01-19T08:46:33.468Z,1.98
2023-01-19T08:47:35.371Z,1.97
2023-01-19T08:48:39.687Z,1.97
2023-01-19T08:49:41.733Z,1.99
2023-01-19T08:50:45.955Z,1.99
2023-01-19T08:51:49.477Z,1.99
2023-01-19T08:52:51.296Z,2.00
2023-01-19T08:53:53.161Z,1.99
2023-01-19T08:54:55.128Z,2.01
2023-01-19T08:55:57.828Z,1.98
2023-01-19T08:56:59.667Z,1.94
2023-01-19T08:58:02.504Z,1.92
2023-01-19T09:00:27.567Z,1.95
2023-01-19T09:01:29.433Z,1.97
2023-01-19T09:02:31.361Z,1.97
2023-01-19T09:03:33.192Z,1.99
2023-01-19T09:04:35.734Z,2.02
2023-01-19T09:05:39.115Z,2.03
2023-01-19T09:06:40.959Z,2.08
2023-01-19T09:07:44.128Z,2.10
2023-01-19T09:08:46.485Z,2.08
2023-01-19T09:09:48.324Z,2.06
2023-01-19T09:10:51.171Z,1.99
2023-01-19T09:11:54.236Z,2.03
2023-01-19T09:12:56.106Z,2.01
2023-01-19T09:13:57.853Z,2.01
2023-01-19T09:14:59.574Z,2.00
2023-01-19T09:16:03.748Z,1.97
2023-01-19T09:17:07.218Z,2.00
2023-01-19T09:18:10.606Z,2.03
2023-01-19T09:19:14.268Z,2.06
2023-01-19T09:20:16.113Z,2.02
2023-01-19T09:21:19.007Z,2.03
2023-01-19T09:22:20.935Z,2.01
2023-01-19T09:23:22.908Z,2.04
2023-01-19T09:24:24.888Z,2.07
2023-01-19T09:25:27.171Z,2.09
2023-01-19T09:26:29.244Z,2.11
2023-01-19T09:27:31.489Z,2.11
2023-01-19T09:28:33.869Z,2.12
2023-01-19T09:29:36.702Z,2.12
2023-01-19T09:30:39.610Z,2.09
2023-01-19T09:31:41.557Z,2.09
2023-01-19T09:32:43.429Z,2.08
2023-01-19T09:33:45.361Z,2.05
2023-01-19T09:34:47.306Z,2.06
2023-01-19T09:35:49.699Z,2.02
2023-01-19T09:36:54.427Z,2.02
2023-01-19T09:37:56.176Z,2.01
2023-01-19T09:38:58.104Z,2.06
2023-01-19T09:39:59.907Z,2.05
2023-01-19T09:41:01.896Z,2.03
2023-01-19T09:42:07.406Z,1.98
2023-01-19T09:43:15.106Z,1.97
2023-01-19T09:44:20.438Z,1.96
2023-01-19T09:45:31.385Z,1.92
2023-01-19T09:46:33.440Z,1.89
2023-01-19T09:47:35.952Z,1.84
2023-01-19T09:48:58.664Z,1.84
2023-01-19T09:50:03.457Z,1.86
2023-01-19T09:51:08.781Z,1.84
2023-01-19T09:52:15.504Z,1.88
2023-01-19T09:53:21.542Z,1.85
2023-01-19T09:54:29.288Z,1.84
2023-01-19T09:55:31.183Z,1.86
2023-01-19T09:56:33.211Z,1.87
2023-01-19T09:57:35.289Z,1.88
2023-01-19T09:58:37.100Z,1.84
2023-01-19T09:59:39.264Z,1.83
2023-01-19T10:00:43.316Z,1.77
2023-01-19T10:01:54.338Z,1.78
2023-01-19T10:03:21.029Z,1.79
2023-01-19T10:04:28.999Z,1.72
2023-01-19T10:05:39.111Z,1.68
2023-01-19T10:06:41.644Z,1.64
2023-01-19T10:08:03.918Z,1.65
2023-01-19T10:09:11.875Z,1.63
2023-01-19T10:10:20.039Z,1.67
2023-01-19T10:11:51.617Z,1.68
2023-01-19T10:13:00.528Z,1.61
2023-01-19T10:14:04.772Z,1.62
2023-01-19T10:15:20.815Z,1.62
2023-01-19T10:16:32.012Z,1.63
2023-01-19T10:17:34.242Z,1.64
2023-01-19T10:18:46.117Z,1.63
2023-01-19T10:19:50.288Z,1.60
2023-01-19T10:21:01.727Z,1.58
2023-01-19T10:22:20.455Z,1.53
2023-01-19T10:23:28.288Z,1.51
2023-01-19T10:24:38.557Z,1.50
2023-01-19T10:25:40.843Z,1.48
2023-01-19T10:26:47.871Z,1.47
2023-01-19T10:27:49.769Z,1.43
2023-01-19T10:29:02.088Z,1.43
2023-01-19T10:30:04.502Z,1.42
2023-01-19T10:31:07.806Z,1.43
2023-01-19T10:32:20.153Z,1.40
2023-01-19T10:33:22.168Z,1.40
2023-01-19T10:34:24.376Z,1.39
2023-01-19T10:35:26.332Z,1.36
2023-01-19T10:36:40.217Z,1.35
2023-01-19T10:37:42.491Z,1.34
2023-01-19T10:38:44.533Z,1.29
2023-01-19T10:39:47.578Z,1.21
2023-01-19T10:40:58.156Z,1.18
2023-01-19T10:42:02.816Z,1.15
2023-01-19T10:43:24.312Z,1.18
2023-01-19T10:44:28.067Z,1.12
2023-01-19T10:45:31.767Z,1.10
2023-01-19T10:46:33.490Z,1.07
2023-01-19T10:47:36.768Z,1.10
2023-01-19T10:48:40.519Z,1.14
2023-01-19T10:49:43.042Z,1.19
2023-01-19T10:50:44.833Z,1.17
2023-01-19T10:51:47.514Z,1.18
2023-01-19T10:52:51.204Z,1.18
2023-01-19T10:53:54.923Z,1.22
2023-01-19T10:54:57.078Z,1.21
2023-01-19T10:56:12.683Z,1.22
2023-01-19T10:57:21.012Z,1.15
2023-01-19T10:58:27.899Z,1.19
2023-01-19T10:59:31.137Z,1.21
2023-01-19T11:00:42.519Z,1.23
2023-01-19T11:01:44.800Z,1.15
2023-01-19T11:02:50.486Z,1.13
2023-01-19T11:03:53.706Z,1.16
2023-01-19T11:05:00.112Z,1.21
2023-01-19T11:06:15.143Z,1.26
2023-01-19T11:07:33.688Z,1.29
2023-01-19T11:08:35.497Z,1.33
2023-01-19T11:09:37.360Z,1.34
2023-01-19T11:10:39.182Z,1.37
2023-01-19T11:11:42.439Z,1.39
2023-01-19T11:13:04.874Z,1.36
2023-01-19T11:14:18.693Z,1.35
2023-01-19T11:15:25.138Z,1.38
2023-01-19T11:16:29.091Z,1.40
2023-01-19T11:17:31.022Z,1.40
2023-01-19T11:18:40.555Z,1.39
2023-01-19T11:19:42.580Z,1.42
2023-01-19T11:20:54.670Z,1.47
2023-01-19T11:22:21.889Z,1.52
2023-01-19T11:23:26.585Z,1.59
2023-01-19T11:24:30.360Z,1.59
2023-01-19T11:25:33.640Z,1.58
2023-01-19T11:26:41.102Z,1.57
2023-01-19T11:27:49.316Z,1.56
2023-01-19T11:28:54.101Z,1.59
2023-01-19T11:30:10.575Z,1.59
2023-01-19T11:31:15.646Z,1.56
2023-01-19T11:32:22.583Z,1.53
2023-01-19T11:33:32.801Z,1.52
2023-01-19T11:34:37.674Z,1.58
2023-01-19T11:35:40.768Z,1.57
2023-01-19T11:36:55.145Z,1.62
2023-01-19T11:38:07.191Z,1.61
2023-01-19T11:39:25.702Z,1.67
2023-01-19T11:40:27.578Z,1.70
2023-01-19T11:41:31.155Z,1.72
2023-01-19T11:42:34.061Z,1.72
2023-01-19T11:43:48.388Z,1.72
2023-01-19T11:44:59.736Z,1.68
2023-01-19T11:46:02.232Z,1.69
2023-01-19T11:47:06.409Z,1.72
2023-01-19T11:48:15.430Z,1.74
2023-01-19T11:49:37.678Z,1.77
2023-01-19T11:50:41.927Z,1.76
2023-01-19T11:51:56.477Z,1.78
2023-01-19T11:53:01.615Z,1.77
2023-01-19T11:54:07.955Z,1.76
2023-01-19T11:55:18.614Z,1.75
2023-01-19T11:56:23.440Z,1.76
2023-01-19T11:57:26.121Z,1.76
2023-01-19T11:58:27.896Z,1.76
2023-01-19T11:59:29.750Z,1.74
2023-01-19T12:00:36.694Z,1.76
2023-01-19T12:01:42.769Z,1.76
2023-01-19T12:02:47.118Z,1.76
2023-01-19T12:03:55.443Z,1.74
2023-01-19T12:05:00.793Z,1.70
2023-01-19T12:06:08.165Z,1.71
2023-01-19T12:07:12.892Z,1.65
2023-01-19T12:08:37.862Z,1.65
2023-01-19T12:09:43.643Z,1.69
2023-01-19T12:10:47.615Z,1.71
2023-01-19T12:11:53.491Z,1.75
2023-01-19T12:12:56.810Z,1.78
2023-01-19T12:14:00.421Z,1.78
2023-01-19T12:15:08.093Z,1.79
2023-01-19T12:16:09.933Z,1.80
2023-01-19T12:17:17.079Z,1.82
2023-01-19T12:18:21.992Z,1.82
2023-01-19T12:19:28.017Z,1.83
2023-01-19T12:20:40.562Z,1.88
2023-01-19T12:21:43.177Z,1.92
2023-01-19T12:22:51.067Z,1.95
2023-01-19T12:24:01.523Z,1.97
2023-01-19T12:25:06.345Z,1.95
2023-01-19T12:26:30.077Z,1.98
2023-01-19T12:27:34.993Z,2.01
2023-01-19T12:28:41.877Z,1.96
2023-01-19T12:29:44.595Z,1.95
2023-01-19T12:30:46.515Z,1.92
2023-01-19T12:32:06.733Z,1.91
2023-01-19T12:33:26.739Z,1.88
2023-01-19T12:34:31.600Z,1.83
2023-01-19T12:35:52.481Z,1.84
2023-01-19T12:36:54.917Z,1.87
2023-01-19T12:37:57.995Z,1.91
2023-01-19T12:39:08.511Z,1.96
2023-01-19T12:40:23.882Z,1.97
2023-01-19T12:41:31.714Z,1.97
2023-01-19T12:42:34.218Z,1.97
2023-01-19T12:43:36.119Z,1.99
2023-01-19T12:44:37.921Z,1.99
2023-01-19T12:45:40.223Z,1.95
2023-01-19T12:46:41.975Z,1.94
2023-01-19T12:48:02.862Z,1.93
2023-01-19T12:49:12.869Z,1.92
2023-01-19T12:50:17.240Z,1.92
2023-01-19T12:51:25.957Z,1.94
2023-01-19T12:52:36.855Z,1.96
2023-01-19T12:53:38.811Z,1.96
2023-01-19T12:54:43.975Z,1.94
2023-01-19T12:55:47.653Z,1.95
2023-01-19T12:56:49.669Z,1.95
2023-01-19T12:58:08.089Z,1.98
2023-01-19T12:59:22.398Z,2.01
2023-01-19T13:00:24.287Z,1.99
2023-01-19T13:01:27.324Z,1.97
2023-01-19T13:02:46.664Z,1.97
2023-01-19T13:04:09.758Z,1.98
2023-01-19T13:05:20.009Z,1.99
2023-01-19T13:06:41.812Z,1.98
2023-01-19T13:08:01.688Z,1.97
2023-01-19T13:09:03.554Z,1.93
2023-01-19T13:10:24.107Z,1.92
2023-01-19T13:11:28.291Z,1.88
2023-01-19T13:12:32.280Z,1.80
2023-01-19T13:13:36.648Z,1.80
2023-01-19T13:14:38.479Z,1.82
2023-01-19T13:15:40.468Z,1.81
2023-01-19T13:16:42.263Z,1.82
2023-01-19T13:17:50.874Z,1.82
2023-01-19T13:18:54.233Z,1.82
2023-01-19T13:20:00.699Z,1.84
2023-01-19T13:21:05.206Z,1.87
2023-01-19T13:22:25.482Z,1.90
2023-01-19T13:23:47.107Z,1.92
2023-01-19T13:25:06.123Z,1.87
2023-01-19T13:26:14.339Z,1.85
2023-01-19T13:27:16.384Z,1.86
2023-01-19T13:28:19.298Z,1.87
2023-01-19T13:29:34.059Z,1.89
2023-01-19T13:30:36.848Z,1.86
2023-01-19T13:31:39.973Z,1.84
2023-01-19T13:32:42.768Z,1.86
2023-01-19T13:33:53.327Z,1.91
2023-01-19T13:35:02.258Z,1.92
2023-01-19T13:36:04.600Z,1.90
2023-01-19T13:37:09.831Z,1.91
2023-01-19T13:38:13.601Z,1.91
2023-01-19T13:39:28.139Z,1.92
2023-01-19T13:40:37.708Z,1.91
2023-01-19T13:41:40.713Z,1.92
2023-01-19T13:42:44.226Z,1.94
2023-01-19T13:43:46.725Z,1.93
2023-01-19T13:44:52.667Z,1.86
2023-01-19T13:45:55.767Z,1.83
2023-01-19T13:46:59.712Z,1.85
2023-01-19T13:48:05.094Z,1.86
2023-01-19T13:49:17.556Z,1.84
2023-01-19T13:50:20.775Z,1.85
2023-01-19T13:51:22.638Z,1.78
2023-01-19T13:52:27.723Z,1.72
2023-01-19T13:53:30.663Z,1.63
2023-01-19T13:54:32.703Z,1.63
2023-01-19T13:55:34.637Z,1.62
2023-01-19T13:56:36.471Z,1.67
2023-01-19T13:57:43.054Z,1.68
2023-01-19T13:58:57.549Z,1.68
2023-01-19T14:00:05.359Z,1.67
2023-01-19T14:01:08.787Z,1.67
2023-01-19T14:02:14.065Z,1.72
2023-01-19T14:03:15.906Z,1.77
2023-01-19T14:04:28.773Z,1.76
2023-01-19T14:05:38.175Z,1.69
2023-01-19T14:06:45.129Z,1.62
2023-01-19T14:07:47.046Z,1.62
2023-01-19T14:09:05.489Z,1.59
2023-01-19T14:10:12.236Z,1.59
2023-01-19T14:11:14.093Z,1.60
2023-01-19T14:12:17.697Z,1.61
2023-01-19T14:13:21.372Z,1.55
2023-01-19T14:14:24.420Z,1.55
2023-01-19T14:15:26.337Z,1.57
2023-01-19T14:16:28.243Z,1.58
2023-01-19T14:17:30.490Z,1.57
2023-01-19T14:18:33.494Z,1.52
2023-01-19T14:19:48.491Z,1.53
2023-01-19T14:21:04.263Z,1.58
2023-01-19T14:22:06.127Z,1.62